sensor_id;sensor_type;location;lat;lon;timestamp;P1;durP1;ratioP1;P2;durP2;ratioP2
21386;SDS011;10854;45.922;6.716;2022-09-09T00:01:33;3.07;;;1.17;;
21386;SDS011;10854;45.922;6.716;2022-09-09T00:09:49;2.57;;;1.33;;
21386;SDS011;10854;45.922;6.716;2022-09-09T00:15:27;4.03;;;1.50;;
21386;SDS011;10854;45.922;6.716;2022-09-09T00:18:27;3.53;;;1.30;;
21386;SDS011;10854;45.922;6.716;2022-09-09T00:21:04;4.30;;;1.30;;
21386;SDS011;10854;45.922;6.716;2022-09-09T00:23:37;2.90;;;1.50;;
21386;SDS011;10854;45.922;6.716;2022-09-09T00:29:03;2.90;;;1.30;;
21386;SDS011;10854;45.922;6.716;2022-09-09T00:31:54;1.47;;;1.27;;
21386;SDS011;10854;45.922;6.716;2022-09-09T00:34:28;3.57;;;1.40;;
21386;SDS011;10854;45.922;6.716;2022-09-09T00:36:57;2.10;;;1.47;;
21386;SDS011;10854;45.922;6.716;2022-09-09T00:39:41;2.37;;;1.30;;
21386;SDS011;10854;45.922;6.716;2022-09-09T00:42:16;2.73;;;1.30;;
21386;SDS011;10854;45.922;6.716;2022-09-09T00:45:02;3.40;;;1.10;;
21386;SDS011;10854;45.922;6.716;2022-09-09T00:48:05;1.83;;;1.10;;
21386;SDS011;10854;45.922;6.716;2022-09-09T00:50:52;1.53;;;1.30;;
21386;SDS011;10854;45.922;6.716;2022-09-09T00:53:54;1.83;;;1.00;;
21386;SDS011;10854;45.922;6.716;2022-09-09T00:56:36;4.97;;;1.30;;
21386;SDS011;10854;45.922;6.716;2022-09-09T00:59:24;3.87;;;1.40;;
21386;SDS011;10854;45.922;6.716;2022-09-09T01:02:13;3.07;;;1.37;;
21386;SDS011;10854;45.922;6.716;2022-09-09T01:05:02;4.53;;;1.50;;
21386;SDS011;10854;45.922;6.716;2022-09-09T01:07:38;3.13;;;1.40;;
21386;SDS011;10854;45.922;6.716;2022-09-09T01:10:15;2.60;;;1.47;;
21386;SDS011;10854;45.922;6.716;2022-09-09T01:12:58;4.97;;;1.40;;
21386;SDS011;10854;45.922;6.716;2022-09-09T01:15:30;3.77;;;1.53;;
21386;SDS011;10854;45.922;6.716;2022-09-09T01:18:20;3.97;;;1.70;;
21386;SDS011;10854;45.922;6.716;2022-09-09T01:20:55;3.37;;;1.60;;
21386;SDS011;10854;45.922;6.716;2022-09-09T01:29:12;1.83;;;1.50;;
21386;SDS011;10854;45.922;6.716;2022-09-09T01:31:56;5.17;;;1.50;;
21386;SDS011;10854;45.922;6.716;2022-09-09T01:34:31;4.90;;;1.60;;
21386;SDS011;10854;45.922;6.716;2022-09-09T01:37:05;2.03;;;1.40;;
21386;SDS011;10854;45.922;6.716;2022-09-09T01:39:37;4.63;;;1.50;;
21386;SDS011;10854;45.922;6.716;2022-09-09T01:42:09;2.03;;;1.30;;
21386;SDS011;10854;45.922;6.716;2022-09-09T01:44:41;4.63;;;1.40;;
21386;SDS011;10854;45.922;6.716;2022-09-09T01:47:09;4.83;;;1.40;;
21386;SDS011;10854;45.922;6.716;2022-09-09T01:49:38;2.80;;;1.40;;
21386;SDS011;10854;45.922;6.716;2022-09-09T01:52:07;3.57;;;1.50;;
21386;SDS011;10854;45.922;6.716;2022-09-09T01:54:36;3.43;;;1.30;;
21386;SDS011;10854;45.922;6.716;2022-09-09T01:57:07;2.13;;;1.30;;
21386;SDS011;10854;45.922;6.716;2022-09-09T02:05:37;5.13;;;1.57;;
21386;SDS011;10854;45.922;6.716;2022-09-09T02:08:08;2.90;;;1.40;;
21386;SDS011;10854;45.922;6.716;2022-09-09T02:10:47;2.97;;;1.40;;
21386;SDS011;10854;45.922;6.716;2022-09-09T02:13:18;1.43;;;1.33;;
21386;SDS011;10854;45.922;6.716;2022-09-09T02:15:53;3.63;;;1.73;;
21386;SDS011;10854;45.922;6.716;2022-09-09T02:18:28;2.40;;;1.50;;
21386;SDS011;10854;45.922;6.716;2022-09-09T02:21:03;3.30;;;1.40;;
21386;SDS011;10854;45.922;6.716;2022-09-09T02:23:34;3.80;;;1.60;;
21386;SDS011;10854;45.922;6.716;2022-09-09T02:26:04;4.07;;;1.50;;
21386;SDS011;10854;45.922;6.716;2022-09-09T02:28:34;2.80;;;1.50;;
21386;SDS011;10854;45.922;6.716;2022-09-09T02:31:06;22.03;;;3.00;;
21386;SDS011;10854;45.922;6.716;2022-09-09T02:33:36;8.67;;;1.73;;
21386;SDS011;10854;45.922;6.716;2022-09-09T02:36:10;6.90;;;2.53;;
21386;SDS011;10854;45.922;6.716;2022-09-09T02:38:45;6.97;;;2.20;;
21386;SDS011;10854;45.922;6.716;2022-09-09T02:41:20;6.67;;;2.17;;
21386;SDS011;10854;45.922;6.716;2022-09-09T02:43:55;4.10;;;2.00;;
21386;SDS011;10854;45.922;6.716;2022-09-09T02:46:27;3.73;;;1.73;;
21386;SDS011;10854;45.922;6.716;2022-09-09T02:49:22;8.60;;;2.00;;
21386;SDS011;10854;45.922;6.716;2022-09-09T02:52:06;3.93;;;2.03;;
21386;SDS011;10854;45.922;6.716;2022-09-09T02:54:38;3.93;;;2.10;;
21386;SDS011;10854;45.922;6.716;2022-09-09T02:57:23;4.53;;;1.83;;
21386;SDS011;10854;45.922;6.716;2022-09-09T02:59:56;5.27;;;2.00;;
21386;SDS011;10854;45.922;6.716;2022-09-09T03:02:27;4.63;;;1.80;;
21386;SDS011;10854;45.922;6.716;2022-09-09T03:04:56;2.47;;;1.90;;
21386;SDS011;10854;45.922;6.716;2022-09-09T03:07:25;4.17;;;2.17;;
21386;SDS011;10854;45.922;6.716;2022-09-09T03:09:54;4.10;;;1.73;;
21386;SDS011;10854;45.922;6.716;2022-09-09T03:12:23;2.73;;;1.60;;
21386;SDS011;10854;45.922;6.716;2022-09-09T03:14:51;3.77;;;1.70;;
21386;SDS011;10854;45.922;6.716;2022-09-09T03:17:20;2.27;;;1.23;;
21386;SDS011;10854;45.922;6.716;2022-09-09T03:19:49;5.23;;;1.67;;
21386;SDS011;10854;45.922;6.716;2022-09-09T03:22:19;1.97;;;1.50;;
21386;SDS011;10854;45.922;6.716;2022-09-09T03:24:48;4.67;;;1.50;;
21386;SDS011;10854;45.922;6.716;2022-09-09T03:27:17;3.60;;;2.13;;
21386;SDS011;10854;45.922;6.716;2022-09-09T03:29:46;3.83;;;2.30;;
21386;SDS011;10854;45.922;6.716;2022-09-09T03:32:18;3.30;;;2.10;;
21386;SDS011;10854;45.922;6.716;2022-09-09T03:34:49;5.53;;;2.50;;
21386;SDS011;10854;45.922;6.716;2022-09-09T03:37:18;6.00;;;2.40;;
21386;SDS011;10854;45.922;6.716;2022-09-09T03:39:47;4.20;;;2.43;;
21386;SDS011;10854;45.922;6.716;2022-09-09T03:42:16;4.37;;;2.10;;
21386;SDS011;10854;45.922;6.716;2022-09-09T03:44:48;2.47;;;2.00;;
21386;SDS011;10854;45.922;6.716;2022-09-09T03:47:18;3.53;;;2.10;;
21386;SDS011;10854;45.922;6.716;2022-09-09T03:49:47;3.50;;;2.20;;
21386;SDS011;10854;45.922;6.716;2022-09-09T03:52:16;2.57;;;2.17;;
21386;SDS011;10854;45.922;6.716;2022-09-09T03:54:48;3.23;;;1.80;;
21386;SDS011;10854;45.922;6.716;2022-09-09T03:57:17;2.10;;;1.90;;
21386;SDS011;10854;45.922;6.716;2022-09-09T03:59:46;3.47;;;1.60;;
21386;SDS011;10854;45.922;6.716;2022-09-09T04:02:14;2.80;;;1.93;;
21386;SDS011;10854;45.922;6.716;2022-09-09T04:04:43;4.73;;;2.10;;
21386;SDS011;10854;45.922;6.716;2022-09-09T04:07:14;2.37;;;1.97;;
21386;SDS011;10854;45.922;6.716;2022-09-09T04:09:43;4.57;;;2.27;;
21386;SDS011;10854;45.922;6.716;2022-09-09T04:12:11;5.50;;;1.90;;
21386;SDS011;10854;45.922;6.716;2022-09-09T04:14:40;2.83;;;2.13;;
21386;SDS011;10854;45.922;6.716;2022-09-09T04:17:09;2.03;;;1.90;;
21386;SDS011;10854;45.922;6.716;2022-09-09T04:19:37;4.17;;;2.03;;
21386;SDS011;10854;45.922;6.716;2022-09-09T04:22:06;4.57;;;2.00;;
21386;SDS011;10854;45.922;6.716;2022-09-09T04:24:34;3.30;;;1.90;;
21386;SDS011;10854;45.922;6.716;2022-09-09T04:27:03;4.47;;;2.00;;
21386;SDS011;10854;45.922;6.716;2022-09-09T04:29:32;2.40;;;2.20;;
21386;SDS011;10854;45.922;6.716;2022-09-09T04:32:04;6.37;;;1.70;;
21386;SDS011;10854;45.922;6.716;2022-09-09T04:34:32;1.87;;;1.33;;
21386;SDS011;10854;45.922;6.716;2022-09-09T04:37:01;1.63;;;1.53;;
21386;SDS011;10854;45.922;6.716;2022-09-09T04:39:30;3.00;;;1.50;;
21386;SDS011;10854;45.922;6.716;2022-09-09T04:41:58;3.67;;;1.60;;
21386;SDS011;10854;45.922;6.716;2022-09-09T04:44:27;1.63;;;1.20;;
21386;SDS011;10854;45.922;6.716;2022-09-09T04:46:55;3.67;;;1.30;;
21386;SDS011;10854;45.922;6.716;2022-09-09T04:49:23;2.47;;;1.40;;
21386;SDS011;10854;45.922;6.716;2022-09-09T04:51:53;3.40;;;1.37;;
21386;SDS011;10854;45.922;6.716;2022-09-09T04:54:21;2.30;;;1.17;;
21386;SDS011;10854;45.922;6.716;2022-09-09T04:56:50;2.03;;;1.43;;
21386;SDS011;10854;45.922;6.716;2022-09-09T04:59:18;3.00;;;1.40;;
21386;SDS011;10854;45.922;6.716;2022-09-09T05:01:48;3.03;;;1.20;;
21386;SDS011;10854;45.922;6.716;2022-09-09T05:04:17;1.30;;;1.20;;
21386;SDS011;10854;45.922;6.716;2022-09-09T05:06:47;1.73;;;1.10;;
21386;SDS011;10854;45.922;6.716;2022-09-09T05:09:16;2.30;;;1.67;;
21386;SDS011;10854;45.922;6.716;2022-09-09T05:11:44;2.90;;;1.53;;
21386;SDS011;10854;45.922;6.716;2022-09-09T05:14:13;1.77;;;1.03;;
21386;SDS011;10854;45.922;6.716;2022-09-09T05:16:44;1.43;;;1.33;;
21386;SDS011;10854;45.922;6.716;2022-09-09T05:19:13;2.63;;;1.40;;
21386;SDS011;10854;45.922;6.716;2022-09-09T05:21:42;3.40;;;1.50;;
21386;SDS011;10854;45.922;6.716;2022-09-09T05:24:11;1.57;;;1.20;;
21386;SDS011;10854;45.922;6.716;2022-09-09T05:26:39;1.73;;;1.20;;
21386;SDS011;10854;45.922;6.716;2022-09-09T05:29:08;2.30;;;1.40;;
21386;SDS011;10854;45.922;6.716;2022-09-09T05:31:36;3.83;;;1.50;;
21386;SDS011;10854;45.922;6.716;2022-09-09T05:34:05;2.30;;;1.30;;
21386;SDS011;10854;45.922;6.716;2022-09-09T05:36:33;2.03;;;1.40;;
21386;SDS011;10854;45.922;6.716;2022-09-09T05:39:02;3.60;;;1.80;;
21386;SDS011;10854;45.922;6.716;2022-09-09T05:41:34;3.60;;;1.70;;
21386;SDS011;10854;45.922;6.716;2022-09-09T05:44:05;5.23;;;1.80;;
21386;SDS011;10854;45.922;6.716;2022-09-09T05:46:34;2.77;;;1.50;;
21386;SDS011;10854;45.922;6.716;2022-09-09T05:49:04;1.40;;;1.20;;
21386;SDS011;10854;45.922;6.716;2022-09-09T05:51:33;3.40;;;1.80;;
21386;SDS011;10854;45.922;6.716;2022-09-09T05:54:02;2.63;;;1.47;;
21386;SDS011;10854;45.922;6.716;2022-09-09T05:56:30;4.03;;;1.80;;
21386;SDS011;10854;45.922;6.716;2022-09-09T05:59:00;3.43;;;1.73;;
21386;SDS011;10854;45.922;6.716;2022-09-09T06:01:30;3.97;;;2.00;;
21386;SDS011;10854;45.922;6.716;2022-09-09T06:04:00;5.10;;;1.80;;
21386;SDS011;10854;45.922;6.716;2022-09-09T06:06:33;3.40;;;1.80;;
21386;SDS011;10854;45.922;6.716;2022-09-09T06:09:04;2.20;;;1.77;;
21386;SDS011;10854;45.922;6.716;2022-09-09T06:11:38;1.83;;;1.30;;
21386;SDS011;10854;45.922;6.716;2022-09-09T06:14:07;1.40;;;1.23;;
21386;SDS011;10854;45.922;6.716;2022-09-09T06:16:36;1.87;;;1.10;;
21386;SDS011;10854;45.922;6.716;2022-09-09T06:19:11;2.40;;;1.10;;
21386;SDS011;10854;45.922;6.716;2022-09-09T06:21:40;1.70;;;1.20;;
21386;SDS011;10854;45.922;6.716;2022-09-09T06:24:09;2.20;;;1.00;;
21386;SDS011;10854;45.922;6.716;2022-09-09T06:26:41;1.63;;;1.20;;
21386;SDS011;10854;45.922;6.716;2022-09-09T06:29:09;2.17;;;1.10;;
21386;SDS011;10854;45.922;6.716;2022-09-09T06:31:38;2.47;;;1.20;;
21386;SDS011;10854;45.922;6.716;2022-09-09T06:34:07;3.07;;;1.10;;
21386;SDS011;10854;45.922;6.716;2022-09-09T06:36:38;2.80;;;1.03;;
21386;SDS011;10854;45.922;6.716;2022-09-09T06:39:07;2.27;;;1.30;;
21386;SDS011;10854;45.922;6.716;2022-09-09T06:41:41;1.37;;;1.00;;
21386;SDS011;10854;45.922;6.716;2022-09-09T06:44:12;2.30;;;1.07;;
21386;SDS011;10854;45.922;6.716;2022-09-09T06:46:40;2.83;;;1.20;;
21386;SDS011;10854;45.922;6.716;2022-09-09T06:49:09;1.10;;;0.90;;
21386;SDS011;10854;45.922;6.716;2022-09-09T06:51:38;0.70;;;0.70;;
21386;SDS011;10854;45.922;6.716;2022-09-09T06:54:11;1.70;;;1.47;;
21386;SDS011;10854;45.922;6.716;2022-09-09T06:56:40;2.63;;;1.50;;
21386;SDS011;10854;45.922;6.716;2022-09-09T06:59:10;2.67;;;1.30;;
21386;SDS011;10854;45.922;6.716;2022-09-09T07:01:42;2.67;;;1.27;;
21386;SDS011;10854;45.922;6.716;2022-09-09T07:04:11;4.47;;;1.30;;
21386;SDS011;10854;45.922;6.716;2022-09-09T07:06:42;2.13;;;1.43;;
21386;SDS011;10854;45.922;6.716;2022-09-09T07:09:14;4.00;;;1.23;;
21386;SDS011;10854;45.922;6.716;2022-09-09T07:11:48;3.70;;;1.20;;
21386;SDS011;10854;45.922;6.716;2022-09-09T07:14:19;2.33;;;1.10;;
21386;SDS011;10854;45.922;6.716;2022-09-09T07:16:48;2.30;;;1.17;;
21386;SDS011;10854;45.922;6.716;2022-09-09T07:19:17;1.80;;;1.17;;
21386;SDS011;10854;45.922;6.716;2022-09-09T07:21:45;2.27;;;1.10;;
21386;SDS011;10854;45.922;6.716;2022-09-09T07:24:13;1.10;;;0.97;;
21386;SDS011;10854;45.922;6.716;2022-09-09T07:26:43;4.30;;;1.07;;
21386;SDS011;10854;45.922;6.716;2022-09-09T07:29:14;1.87;;;1.07;;
21386;SDS011;10854;45.922;6.716;2022-09-09T07:31:45;3.10;;;1.03;;
21386;SDS011;10854;45.922;6.716;2022-09-09T07:34:14;3.20;;;1.80;;
21386;SDS011;10854;45.922;6.716;2022-09-09T07:36:44;2.57;;;1.20;;
21386;SDS011;10854;45.922;6.716;2022-09-09T07:39:14;4.30;;;1.30;;
21386;SDS011;10854;45.922;6.716;2022-09-09T07:41:46;1.63;;;1.00;;
21386;SDS011;10854;45.922;6.716;2022-09-09T07:44:16;1.27;;;0.90;;
21386;SDS011;10854;45.922;6.716;2022-09-09T07:46:47;2.70;;;1.00;;
21386;SDS011;10854;45.922;6.716;2022-09-09T07:49:15;4.75;;;1.20;;
21386;SDS011;10854;45.922;6.716;2022-09-09T07:51:47;1.95;;;1.00;;
21386;SDS011;10854;45.922;6.716;2022-09-09T07:54:17;3.83;;;1.10;;
21386;SDS011;10854;45.922;6.716;2022-09-09T07:56:48;2.13;;;0.90;;
21386;SDS011;10854;45.922;6.716;2022-09-09T07:59:16;3.03;;;1.30;;
21386;SDS011;10854;45.922;6.716;2022-09-09T08:01:50;2.97;;;1.40;;
21386;SDS011;10854;45.922;6.716;2022-09-09T08:04:23;1.70;;;1.10;;
21386;SDS011;10854;45.922;6.716;2022-09-09T08:06:54;2.28;;;1.42;;
21386;SDS011;10854;45.922;6.716;2022-09-09T08:09:27;3.15;;;1.35;;
21386;SDS011;10854;45.922;6.716;2022-09-09T08:12:00;56.10;;;4.03;;
21386;SDS011;10854;45.922;6.716;2022-09-09T08:14:28;3.40;;;1.05;;
21386;SDS011;10854;45.922;6.716;2022-09-09T08:16:58;6.43;;;1.10;;
21386;SDS011;10854;45.922;6.716;2022-09-09T08:19:27;2.53;;;1.00;;
21386;SDS011;10854;45.922;6.716;2022-09-09T08:21:57;4.00;;;1.15;;
21386;SDS011;10854;45.922;6.716;2022-09-09T08:24:26;5.03;;;1.10;;
21386;SDS011;10854;45.922;6.716;2022-09-09T08:26:54;4.82;;;1.13;;
21386;SDS011;10854;45.922;6.716;2022-09-09T08:29:24;3.63;;;1.10;;
21386;SDS011;10854;45.922;6.716;2022-09-09T08:31:53;3.20;;;1.10;;
21386;SDS011;10854;45.922;6.716;2022-09-09T08:34:24;4.25;;;1.30;;
21386;SDS011;10854;45.922;6.716;2022-09-09T08:36:54;3.63;;;1.10;;
21386;SDS011;10854;45.922;6.716;2022-09-09T08:39:23;2.67;;;1.23;;
21386;SDS011;10854;45.922;6.716;2022-09-09T08:47:27;1.98;;;1.13;;
21386;SDS011;10854;45.922;6.716;2022-09-09T08:58:11;2.92;;;1.20;;
21386;SDS011;10854;45.922;6.716;2022-09-09T09:11:38;6.50;;;1.30;;
21386;SDS011;10854;45.922;6.716;2022-09-09T09:14:16;3.47;;;1.33;;
21386;SDS011;10854;45.922;6.716;2022-09-09T09:17:10;1.77;;;0.98;;
21386;SDS011;10854;45.922;6.716;2022-09-09T09:19:42;3.55;;;1.30;;
21386;SDS011;10854;45.922;6.716;2022-09-09T09:22:34;5.10;;;1.50;;
21386;SDS011;10854;45.922;6.716;2022-09-09T09:28:00;1.75;;;1.10;;
21386;SDS011;10854;45.922;6.716;2022-09-09T09:36:09;3.63;;;0.90;;
21386;SDS011;10854;45.922;6.716;2022-09-09T09:38:37;2.58;;;1.05;;
21386;SDS011;10854;45.922;6.716;2022-09-09T09:41:31;3.67;;;1.30;;
21386;SDS011;10854;45.922;6.716;2022-09-09T09:44:02;4.10;;;1.60;;
21386;SDS011;10854;45.922;6.716;2022-09-09T09:46:34;29.05;;;3.72;;
21386;SDS011;10854;45.922;6.716;2022-09-09T09:49:04;4.15;;;1.30;;
21386;SDS011;10854;45.922;6.716;2022-09-09T09:51:41;2.75;;;1.08;;
21386;SDS011;10854;45.922;6.716;2022-09-09T09:56:53;1.17;;;0.90;;
21386;SDS011;10854;45.922;6.716;2022-09-09T09:59:24;1.58;;;1.02;;
21386;SDS011;10854;45.922;6.716;2022-09-09T10:02:15;1.90;;;1.05;;
21386;SDS011;10854;45.922;6.716;2022-09-09T10:04:44;2.70;;;1.10;;
21386;SDS011;10854;45.922;6.716;2022-09-09T10:07:17;3.08;;;1.10;;
21386;SDS011;10854;45.922;6.716;2022-09-09T10:09:52;2.10;;;1.13;;
21386;SDS011;10854;45.922;6.716;2022-09-09T10:12:26;3.30;;;1.30;;
21386;SDS011;10854;45.922;6.716;2022-09-09T10:17:55;2.75;;;1.00;;
21386;SDS011;10854;45.922;6.716;2022-09-09T10:20:43;2.97;;;1.00;;
21386;SDS011;10854;45.922;6.716;2022-09-09T10:29:23;2.83;;;1.10;;
21386;SDS011;10854;45.922;6.716;2022-09-09T10:35:08;1.67;;;1.00;;
21386;SDS011;10854;45.922;6.716;2022-09-09T10:40:58;1.92;;;0.93;;
21386;SDS011;10854;45.922;6.716;2022-09-09T10:43:57;1.95;;;0.88;;
21386;SDS011;10854;45.922;6.716;2022-09-09T10:52:03;1.92;;;1.08;;
21386;SDS011;10854;45.922;6.716;2022-09-09T11:00:17;1.55;;;0.90;;
21386;SDS011;10854;45.922;6.716;2022-09-09T11:02:53;1.15;;;0.80;;
21386;SDS011;10854;45.922;6.716;2022-09-09T11:05:41;3.65;;;0.90;;
21386;SDS011;10854;45.922;6.716;2022-09-09T11:08:19;1.27;;;0.80;;
21386;SDS011;10854;45.922;6.716;2022-09-09T11:10:58;3.85;;;0.90;;
21386;SDS011;10854;45.922;6.716;2022-09-09T11:13:51;1.15;;;0.90;;
21386;SDS011;10854;45.922;6.716;2022-09-09T11:17:14;1.08;;;0.90;;
21386;SDS011;10854;45.922;6.716;2022-09-09T11:19:42;0.93;;;0.80;;
21386;SDS011;10854;45.922;6.716;2022-09-09T11:22:31;1.90;;;0.88;;
21386;SDS011;10854;45.922;6.716;2022-09-09T11:25:23;1.20;;;0.90;;
21386;SDS011;10854;45.922;6.716;2022-09-09T11:42:15;0.90;;;0.70;;
21386;SDS011;10854;45.922;6.716;2022-09-09T11:44:46;1.92;;;0.85;;
21386;SDS011;10854;45.922;6.716;2022-09-09T11:52:44;0.80;;;0.80;;
21386;SDS011;10854;45.922;6.716;2022-09-09T11:55:27;1.85;;;0.70;;
21386;SDS011;10854;45.922;6.716;2022-09-09T11:58:02;1.98;;;1.00;;
21386;SDS011;10854;45.922;6.716;2022-09-09T12:00:39;0.70;;;0.70;;
21386;SDS011;10854;45.922;6.716;2022-09-09T12:06:13;1.88;;;0.85;;
21386;SDS011;10854;45.922;6.716;2022-09-09T12:08:54;1.75;;;1.00;;
21386;SDS011;10854;45.922;6.716;2022-09-09T12:11:33;2.35;;;0.80;;
21386;SDS011;10854;45.922;6.716;2022-09-09T12:14:02;1.90;;;1.00;;
21386;SDS011;10854;45.922;6.716;2022-09-09T12:16:34;1.90;;;0.80;;
21386;SDS011;10854;45.922;6.716;2022-09-09T12:19:12;2.50;;;0.93;;
21386;SDS011;10854;45.922;6.716;2022-09-09T12:24:27;1.17;;;0.90;;
21386;SDS011;10854;45.922;6.716;2022-09-09T12:27:12;1.58;;;1.00;;
21386;SDS011;10854;45.922;6.716;2022-09-09T12:29:55;0.98;;;0.70;;
21386;SDS011;10854;45.922;6.716;2022-09-09T12:32:32;1.70;;;0.88;;
21386;SDS011;10854;45.922;6.716;2022-09-09T12:35:02;2.83;;;1.00;;
21386;SDS011;10854;45.922;6.716;2022-09-09T12:37:54;1.35;;;0.90;;
21386;SDS011;10854;45.922;6.716;2022-09-09T12:40:32;1.58;;;0.90;;
21386;SDS011;10854;45.922;6.716;2022-09-09T12:43:19;0.98;;;0.88;;
21386;SDS011;10854;45.922;6.716;2022-09-09T12:45:51;1.35;;;0.90;;
21386;SDS011;10854;45.922;6.716;2022-09-09T12:48:27;1.50;;;0.90;;
21386;SDS011;10854;45.922;6.716;2022-09-09T12:51:01;2.80;;;0.88;;
21386;SDS011;10854;45.922;6.716;2022-09-09T12:53:33;1.73;;;0.85;;
21386;SDS011;10854;45.922;6.716;2022-09-09T12:56:05;1.17;;;0.75;;
21386;SDS011;10854;45.922;6.716;2022-09-09T12:58:36;1.05;;;0.80;;
21386;SDS011;10854;45.922;6.716;2022-09-09T13:01:05;1.98;;;1.08;;
21386;SDS011;10854;45.922;6.716;2022-09-09T13:03:46;0.73;;;0.73;;
21386;SDS011;10854;45.922;6.716;2022-09-09T13:06:25;1.52;;;0.80;;
21386;SDS011;10854;45.922;6.716;2022-09-09T13:08:58;1.77;;;0.93;;
21386;SDS011;10854;45.922;6.716;2022-09-09T13:11:30;1.63;;;1.00;;
21386;SDS011;10854;45.922;6.716;2022-09-09T13:14:04;0.90;;;0.80;;
21386;SDS011;10854;45.922;6.716;2022-09-09T13:16:34;0.95;;;0.80;;
21386;SDS011;10854;45.922;6.716;2022-09-09T13:19:15;1.25;;;0.90;;
21386;SDS011;10854;45.922;6.716;2022-09-09T13:21:44;2.58;;;1.35;;
21386;SDS011;10854;45.922;6.716;2022-09-09T13:24:32;1.48;;;0.80;;
21386;SDS011;10854;45.922;6.716;2022-09-09T13:27:05;1.98;;;0.90;;
21386;SDS011;10854;45.922;6.716;2022-09-09T13:30:00;2.90;;;1.10;;
21386;SDS011;10854;45.922;6.716;2022-09-09T13:32:29;1.67;;;0.95;;
21386;SDS011;10854;45.922;6.716;2022-09-09T13:34:59;1.90;;;0.90;;
21386;SDS011;10854;45.922;6.716;2022-09-09T13:37:34;1.17;;;0.90;;
21386;SDS011;10854;45.922;6.716;2022-09-09T13:40:05;3.75;;;1.15;;
21386;SDS011;10854;45.922;6.716;2022-09-09T13:42:44;2.13;;;1.20;;
21386;SDS011;10854;45.922;6.716;2022-09-09T13:45:17;2.88;;;1.05;;
21386;SDS011;10854;45.922;6.716;2022-09-09T13:47:49;4.55;;;1.17;;
21386;SDS011;10854;45.922;6.716;2022-09-09T13:50:23;1.92;;;1.00;;
21386;SDS011;10854;45.922;6.716;2022-09-09T13:52:54;2.92;;;1.00;;
21386;SDS011;10854;45.922;6.716;2022-09-09T13:55:27;3.97;;;1.00;;
21386;SDS011;10854;45.922;6.716;2022-09-09T13:58:00;1.92;;;1.00;;
21386;SDS011;10854;45.922;6.716;2022-09-09T14:00:33;2.47;;;1.02;;
21386;SDS011;10854;45.922;6.716;2022-09-09T14:03:02;2.67;;;1.05;;
21386;SDS011;10854;45.922;6.716;2022-09-09T14:05:31;5.05;;;1.20;;
21386;SDS011;10854;45.922;6.716;2022-09-09T14:08:03;2.88;;;1.00;;
21386;SDS011;10854;45.922;6.716;2022-09-09T14:10:33;1.88;;;1.02;;
21386;SDS011;10854;45.922;6.716;2022-09-09T14:13:05;1.50;;;0.90;;
21386;SDS011;10854;45.922;6.716;2022-09-09T14:15:34;2.75;;;0.98;;
21386;SDS011;10854;45.922;6.716;2022-09-09T14:18:03;3.40;;;1.05;;
21386;SDS011;10854;45.922;6.716;2022-09-09T14:20:32;1.63;;;0.80;;
21386;SDS011;10854;45.922;6.716;2022-09-09T14:23:00;3.17;;;0.90;;
21386;SDS011;10854;45.922;6.716;2022-09-09T14:25:29;1.42;;;0.80;;
21386;SDS011;10854;45.922;6.716;2022-09-09T14:27:58;1.10;;;0.95;;
21386;SDS011;10854;45.922;6.716;2022-09-09T14:30:27;2.40;;;0.95;;
21386;SDS011;10854;45.922;6.716;2022-09-09T14:32:56;2.15;;;0.90;;
21386;SDS011;10854;45.922;6.716;2022-09-09T14:35:24;1.80;;;0.77;;
21386;SDS011;10854;45.922;6.716;2022-09-09T14:37:53;3.50;;;0.98;;
21386;SDS011;10854;45.922;6.716;2022-09-09T14:40:22;2.25;;;1.05;;
21386;SDS011;10854;45.922;6.716;2022-09-09T14:42:52;2.63;;;0.98;;
21386;SDS011;10854;45.922;6.716;2022-09-09T14:45:21;4.70;;;1.00;;
21386;SDS011;10854;45.922;6.716;2022-09-09T14:47:51;3.95;;;1.10;;
21386;SDS011;10854;45.922;6.716;2022-09-09T14:50:20;1.35;;;1.00;;
21386;SDS011;10854;45.922;6.716;2022-09-09T14:52:49;2.97;;;0.88;;
21386;SDS011;10854;45.922;6.716;2022-09-09T14:55:17;2.67;;;0.95;;
21386;SDS011;10854;45.922;6.716;2022-09-09T14:57:49;1.25;;;0.90;;
21386;SDS011;10854;45.922;6.716;2022-09-09T15:00:18;2.55;;;0.88;;
21386;SDS011;10854;45.922;6.716;2022-09-09T15:02:46;2.95;;;1.02;;
21386;SDS011;10854;45.922;6.716;2022-09-09T15:05:15;2.85;;;1.00;;
21386;SDS011;10854;45.922;6.716;2022-09-09T15:07:44;2.75;;;1.10;;
21386;SDS011;10854;45.922;6.716;2022-09-09T15:10:13;4.13;;;1.00;;
21386;SDS011;10854;45.922;6.716;2022-09-09T15:12:41;2.08;;;1.00;;
21386;SDS011;10854;45.922;6.716;2022-09-09T15:15:12;0.60;;;0.60;;
21386;SDS011;10854;45.922;6.716;2022-09-09T15:17:40;1.08;;;0.70;;
21386;SDS011;10854;45.922;6.716;2022-09-09T15:20:10;1.20;;;0.80;;
21386;SDS011;10854;45.922;6.716;2022-09-09T15:22:40;4.38;;;1.00;;
21386;SDS011;10854;45.922;6.716;2022-09-09T15:25:10;2.60;;;0.98;;
21386;SDS011;10854;45.922;6.716;2022-09-09T15:27:39;1.95;;;0.90;;
21386;SDS011;10854;45.922;6.716;2022-09-09T15:30:08;1.63;;;0.80;;
21386;SDS011;10854;45.922;6.716;2022-09-09T15:32:37;1.98;;;1.10;;
21386;SDS011;10854;45.922;6.716;2022-09-09T15:35:07;2.80;;;0.95;;
21386;SDS011;10854;45.922;6.716;2022-09-09T15:37:35;2.80;;;1.02;;
21386;SDS011;10854;45.922;6.716;2022-09-09T15:40:04;4.57;;;1.05;;
21386;SDS011;10854;45.922;6.716;2022-09-09T15:42:33;1.30;;;0.80;;
21386;SDS011;10854;45.922;6.716;2022-09-09T15:45:02;1.52;;;1.00;;
21386;SDS011;10854;45.922;6.716;2022-09-09T15:47:33;6.13;;;1.30;;
21386;SDS011;10854;45.922;6.716;2022-09-09T15:50:02;3.65;;;0.80;;
21386;SDS011;10854;45.922;6.716;2022-09-09T15:52:31;2.67;;;0.90;;
21386;SDS011;10854;45.922;6.716;2022-09-09T15:54:59;1.88;;;0.98;;
21386;SDS011;10854;45.922;6.716;2022-09-09T15:57:28;2.72;;;0.70;;
21386;SDS011;10854;45.922;6.716;2022-09-09T15:59:57;1.58;;;0.90;;
21386;SDS011;10854;45.922;6.716;2022-09-09T16:02:26;2.00;;;0.80;;
21386;SDS011;10854;45.922;6.716;2022-09-09T16:04:55;2.03;;;0.90;;
21386;SDS011;10854;45.922;6.716;2022-09-09T16:07:24;1.45;;;0.70;;
21386;SDS011;10854;45.922;6.716;2022-09-09T16:09:53;2.08;;;0.93;;
21386;SDS011;10854;45.922;6.716;2022-09-09T16:12:21;0.98;;;0.75;;
21386;SDS011;10854;45.922;6.716;2022-09-09T16:14:50;0.95;;;0.70;;
21386;SDS011;10854;45.922;6.716;2022-09-09T16:17:18;1.98;;;0.90;;
21386;SDS011;10854;45.922;6.716;2022-09-09T16:19:47;0.93;;;0.70;;
21386;SDS011;10854;45.922;6.716;2022-09-09T16:22:16;3.08;;;0.93;;
21386;SDS011;10854;45.922;6.716;2022-09-09T16:24:45;2.47;;;0.75;;
21386;SDS011;10854;45.922;6.716;2022-09-09T16:27:13;2.08;;;1.20;;
21386;SDS011;10854;45.922;6.716;2022-09-09T16:29:42;2.40;;;1.00;;
21386;SDS011;10854;45.922;6.716;2022-09-09T16:32:11;2.25;;;0.90;;
21386;SDS011;10854;45.922;6.716;2022-09-09T16:34:41;2.22;;;0.90;;
21386;SDS011;10854;45.922;6.716;2022-09-09T16:37:10;1.88;;;1.00;;
21386;SDS011;10854;45.922;6.716;2022-09-09T16:39:39;1.10;;;0.80;;
21386;SDS011;10854;45.922;6.716;2022-09-09T16:42:07;2.90;;;1.00;;
21386;SDS011;10854;45.922;6.716;2022-09-09T16:44:37;1.80;;;1.00;;
21386;SDS011;10854;45.922;6.716;2022-09-09T16:47:05;2.30;;;0.80;;
21386;SDS011;10854;45.922;6.716;2022-09-09T16:49:34;2.00;;;0.90;;
21386;SDS011;10854;45.922;6.716;2022-09-09T16:52:03;2.35;;;0.90;;
21386;SDS011;10854;45.922;6.716;2022-09-09T16:54:32;1.77;;;0.85;;
21386;SDS011;10854;45.922;6.716;2022-09-09T16:57:00;1.95;;;0.85;;
21386;SDS011;10854;45.922;6.716;2022-09-09T16:59:30;3.65;;;1.00;;
21386;SDS011;10854;45.922;6.716;2022-09-09T17:01:59;5.47;;;1.00;;
21386;SDS011;10854;45.922;6.716;2022-09-09T17:04:28;3.75;;;0.90;;
21386;SDS011;10854;45.922;6.716;2022-09-09T17:06:58;1.77;;;1.00;;
21386;SDS011;10854;45.922;6.716;2022-09-09T17:09:28;1.80;;;0.83;;
21386;SDS011;10854;45.922;6.716;2022-09-09T17:11:59;2.13;;;1.00;;